createdAt,value
2023-05-23T00:01:43.140Z,16.30
2023-05-23T00:07:45.638Z,18.45
2023-05-23T00:13:47.661Z,16.67
2023-05-23T00:19:49.475Z,16.75
2023-05-23T00:25:54.349Z,17.33
2023-05-23T00:31:56.147Z,20.75
2023-05-23T00:37:57.967Z,18.27
2023-05-23T00:44:00.058Z,19.65
2023-05-23T00:50:02.254Z,18.33
2023-05-23T00:56:04.642Z,21.23
2023-05-23T01:02:06.801Z,21.30
2023-05-23T01:08:08.783Z,27.52
2023-05-23T01:14:17.244Z,26.33
2023-05-23T01:20:23.642Z,27.98
2023-05-23T01:26:48.300Z,26.85
2023-05-23T01:32:53.557Z,25.55
2023-05-23T01:38:55.592Z,25.45
2023-05-23T01:44:59.533Z,22.15
2023-05-23T01:51:02.347Z,26.23
2023-05-23T01:57:05.898Z,24.05
2023-05-23T02:03:08.008Z,26.25
2023-05-23T02:09:10.173Z,28.70
2023-05-23T02:15:12.160Z,28.80
2023-05-23T02:21:14.028Z,40.75
2023-05-23T02:27:15.967Z,46.13
2023-05-23T02:33:17.912Z,43.90
2023-05-23T02:39:19.842Z,69.35
2023-05-23T02:45:21.777Z,64.25
2023-05-23T02:51:23.664Z,64.30
2023-05-23T02:57:25.883Z,57.50
2023-05-23T03:03:28.959Z,44.20
2023-05-23T03:09:31.278Z,42.78
2023-05-23T03:15:33.253Z,42.72
2023-05-23T03:21:35.684Z,36.42
2023-05-23T03:27:37.652Z,33.30
2023-05-23T03:33:40.609Z,29.65
2023-05-23T03:39:42.752Z,26.65
2023-05-23T03:45:44.903Z,30.08
2023-05-23T03:51:49.475Z,29.88
2023-05-23T03:57:52.765Z,23.90
2023-05-23T04:03:55.652Z,27.98
2023-05-23T04:10:00.516Z,24.27
2023-05-23T04:16:05.979Z,27.42
2023-05-23T04:22:08.601Z,26.73
2023-05-23T04:28:12.541Z,30.13
2023-05-23T04:34:14.519Z,25.35
2023-05-23T04:40:17.036Z,32.22
2023-05-23T04:46:56.608Z,31.13
2023-05-23T04:53:04.271Z,30.08
2023-05-23T04:59:08.748Z,30.15
2023-05-23T05:05:11.155Z,30.58
2023-05-23T05:11:13.138Z,30.10
2023-05-23T05:17:15.232Z,20.80
2023-05-23T05:23:34.205Z,17.70
2023-05-23T05:29:36.579Z,20.10
2023-05-23T05:35:38.878Z,17.33
2023-05-23T05:41:41.583Z,14.98
2023-05-23T05:47:44.065Z,14.38
2023-05-23T05:53:46.453Z,13.73
2023-05-23T05:59:48.658Z,13.60
2023-05-23T06:05:50.985Z,11.82
2023-05-23T06:11:52.952Z,12.80
2023-05-23T06:17:54.983Z,17.15
2023-05-23T06:23:57.197Z,14.75
2023-05-23T06:30:00.216Z,14.23
2023-05-23T06:36:03.615Z,15.82
2023-05-23T06:42:07.325Z,17.33
2023-05-23T06:48:24.825Z,16.00
2023-05-23T06:54:26.747Z,16.17
2023-05-23T07:00:30.090Z,12.18
2023-05-23T07:06:50.749Z,13.27
2023-05-23T07:12:52.676Z,12.88
2023-05-23T07:18:56.978Z,11.85
2023-05-23T07:24:59.001Z,10.23
2023-05-23T07:31:05.680Z,10.27
2023-05-23T07:37:07.930Z,13.13
2023-05-23T07:43:16.922Z,14.43
2023-05-23T07:49:18.804Z,16.05
2023-05-23T07:55:21.387Z,15.70
2023-05-23T08:01:24.966Z,16.15
2023-05-23T08:07:47.051Z,15.65
2023-05-23T08:13:49.631Z,16.48
2023-05-23T08:20:12.283Z,16.13
2023-05-23T08:26:15.557Z,13.38
2023-05-23T08:32:18.007Z,12.73
2023-05-23T08:38:22.070Z,13.90
2023-05-23T08:44:35.998Z,11.18
2023-05-23T08:50:39.956Z,8.02
2023-05-23T08:56:44.136Z,8.23
2023-05-23T09:02:46.890Z,6.30
2023-05-23T09:09:05.724Z,6.38
2023-05-23T09:15:09.438Z,7.30
2023-05-23T09:21:13.439Z,8.15
2023-05-23T09:27:25.199Z,10.48
2023-05-23T09:33:49.978Z,8.13
2023-05-23T09:39:53.572Z,8.32
2023-05-23T09:45:56.412Z,11.40
2023-05-23T09:51:59.791Z,10.50
2023-05-23T09:58:03.900Z,8.02
2023-05-23T10:04:06.725Z,10.73
2023-05-23T10:10:12.894Z,11.93
2023-05-23T10:16:19.308Z,13.52
2023-05-23T10:22:21.980Z,14.45
2023-05-23T10:28:24.651Z,13.38
2023-05-23T10:34:57.745Z,8.85
2023-05-23T10:41:41.605Z,7.18
2023-05-23T10:47:43.510Z,4.65
2023-05-23T10:53:46.581Z,4.25
2023-05-23T10:59:51.912Z,5.28
2023-05-23T11:05:53.862Z,4.40
2023-05-23T11:12:04.680Z,3.95
2023-05-23T11:18:07.013Z,2.67
2023-05-23T11:24:10.096Z,4.05
2023-05-23T11:30:14.417Z,2.75
2023-05-23T11:36:16.609Z,2.30
2023-05-23T11:42:18.392Z,2.70
2023-05-23T11:48:20.211Z,3.70
2023-05-23T11:54:28.559Z,3.97
2023-05-23T12:00:30.638Z,4.65
2023-05-23T12:06:34.045Z,8.07
2023-05-23T12:12:36.010Z,8.52
2023-05-23T12:18:38.153Z,16.48
2023-05-23T12:24:49.285Z,16.50
2023-05-23T12:30:51.359Z,16.27
2023-05-23T12:37:10.441Z,14.52
2023-05-23T12:43:19.909Z,15.25
2023-05-23T12:49:21.908Z,21.50
2023-05-23T12:55:23.936Z,17.02
2023-05-23T13:01:25.888Z,18.25
2023-05-23T13:07:27.807Z,24.27
2023-05-23T13:13:30.653Z,23.88
2023-05-23T13:19:32.703Z,23.90
2023-05-23T13:25:34.962Z,19.55
2023-05-23T13:31:36.864Z,14.10
2023-05-23T13:37:38.856Z,16.70
2023-05-23T13:43:40.781Z,18.98
2023-05-23T13:49:43.236Z,21.00
2023-05-23T13:55:45.330Z,21.35
2023-05-23T14:01:48.110Z,18.30
2023-05-23T14:07:49.979Z,22.80
2023-05-23T14:13:51.855Z,16.15
2023-05-23T14:19:53.775Z,24.17
2023-05-23T14:25:55.639Z,25.30
2023-05-23T14:31:59.906Z,19.48
2023-05-23T14:38:02.042Z,24.27
2023-05-23T14:44:04.382Z,22.10
2023-05-23T14:50:07.086Z,16.58
2023-05-23T14:56:09.129Z,22.98
2023-05-23T15:02:11.571Z,12.43
2023-05-23T15:08:13.403Z,14.88
2023-05-23T15:14:18.444Z,16.35
2023-05-23T15:20:20.530Z,17.88
2023-05-23T15:26:22.776Z,14.77
2023-05-23T15:32:24.787Z,22.25
2023-05-23T15:38:26.820Z,20.67
2023-05-23T15:44:28.713Z,21.30
2023-05-23T15:50:30.686Z,23.25
2023-05-23T15:56:47.857Z,18.17
2023-05-23T16:02:49.896Z,19.70
2023-05-23T16:08:51.898Z,17.10
2023-05-23T16:14:53.786Z,17.38
2023-05-23T16:20:57.117Z,17.35
2023-05-23T16:27:00.301Z,18.88
2023-05-23T16:33:02.215Z,14.75
2023-05-23T16:39:04.218Z,17.05
2023-05-23T16:45:06.753Z,15.50
2023-05-23T16:51:08.682Z,21.58
2023-05-23T16:57:11.172Z,19.75
2023-05-23T17:03:13.116Z,16.83
2023-05-23T17:09:15.084Z,16.83
2023-05-23T17:15:16.921Z,15.00
2023-05-23T17:21:18.723Z,23.92
2023-05-23T17:27:21.049Z,22.73
2023-05-23T17:33:22.869Z,17.85
2023-05-23T17:39:24.842Z,19.05
2023-05-23T17:45:26.787Z,15.65
2023-05-23T17:51:28.603Z,19.60
2023-05-23T17:57:31.307Z,15.85
2023-05-23T18:03:33.154Z,14.35
2023-05-23T18:09:34.952Z,16.92
2023-05-23T18:15:36.843Z,14.85
2023-05-23T18:21:38.666Z,19.63
2023-05-23T18:27:40.451Z,18.08
2023-05-23T18:33:57.837Z,20.23
2023-05-23T18:40:00.384Z,22.03
2023-05-23T18:46:02.378Z,16.30
2023-05-23T18:52:06.107Z,23.15
2023-05-23T18:58:08.078Z,17.83
2023-05-23T19:04:10.073Z,18.45
2023-05-23T19:10:12.707Z,13.38
2023-05-23T19:16:15.302Z,14.88
2023-05-23T19:22:17.376Z,21.83
2023-05-23T19:28:19.258Z,21.15
2023-05-23T19:34:21.180Z,18.27
2023-05-23T19:40:23.937Z,19.35
2023-05-23T19:46:28.868Z,23.23
2023-05-23T19:52:30.829Z,21.27
2023-05-23T19:58:35.097Z,19.48
2023-05-23T20:04:36.965Z,15.57
2023-05-23T20:10:39.288Z,22.33
2023-05-23T20:16:41.574Z,13.40
2023-05-23T20:22:43.472Z,18.63
2023-05-23T20:28:45.325Z,20.00
2023-05-23T20:34:47.246Z,16.60
2023-05-23T20:40:51.494Z,20.67
2023-05-23T20:46:57.011Z,15.20
2023-05-23T20:53:02.090Z,15.95
2023-05-23T20:59:04.389Z,19.33
2023-05-23T21:05:10.946Z,15.57
2023-05-23T21:11:24.913Z,23.70
2023-05-23T21:17:27.012Z,22.10
2023-05-23T21:23:28.865Z,20.02
2023-05-23T21:29:31.136Z,22.30
2023-05-23T21:35:32.980Z,15.00
2023-05-23T21:41:34.862Z,22.10
2023-05-23T21:47:36.722Z,18.83
2023-05-23T21:53:38.775Z,18.17
2023-05-23T21:59:41.633Z,18.75
2023-05-23T22:05:43.535Z,13.35
2023-05-23T22:11:45.629Z,21.02
2023-05-23T22:17:47.511Z,22.27
2023-05-23T22:23:49.345Z,14.18
2023-05-23T22:29:52.245Z,16.55
2023-05-23T22:35:54.068Z,20.17
2023-05-23T22:41:55.883Z,14.45
2023-05-23T22:48:00.697Z,19.15
2023-05-23T22:54:02.740Z,16.80
2023-05-23T23:00:05.730Z,18.52
2023-05-23T23:06:09.267Z,20.67
2023-05-23T23:12:11.441Z,14.23
2023-05-23T23:18:13.762Z,14.40
2023-05-23T23:24:15.800Z,20.13
2023-05-23T23:30:17.895Z,8.82
2023-05-23T23:36:19.907Z,16.35
2023-05-23T23:42:43.649Z,12.98
2023-05-23T23:48:45.606Z,12.00
2023-05-23T23:54:47.384Z,10.98
